»·PEaware :: N752RB KGJT-KPVU

N752RB :: KGJT-KPVU

FLIGHT INFORMATION

Flight Status: Arrived
Operator: Privately registered:
United States
More flights under this callsign
Pilot: Anonymous 16551 (16551)
Aircraft: BEECH AIRCRAFT BARON
(BE58)
More flights by this aircraft type
Origin: KGJT Walker
United States
Destination: KPVU Provo Mun
United States
More flights between these airports :: More routes between these airports
Route: +
File this flight plan on PilotEdge
Remarks:
Altitude:
(Current/Filed)
10,500ft
Speed:
(Current/Filed)
0kts
Departed: 03-Dec-17 12:16 PM
Arrived: 03-Dec-17 01:09 PM
Distance/Time
Traveled:
161nm/0:52
Distance/Time
To Go:
Arrived

Flight Plot

Page will automatically refresh every two minutes.


Map Options




Map Legend


Flown Route
Filed Route
Departure Airport
Arrival Airport
Navaid (VOR, NDB)
Fix

Horizontal Profiles

Position Reports

Time Latitude Longitude Heading Altitude Ground
Speed
03-Dec-17 12:20 39.279695 -108.912878 276 10448ft 166kts
03-Dec-17 12:21 39.290075 -108.970605 272 10409ft 164kts
03-Dec-17 12:22 39.297636 -109.018965 274 10386ft 166kts
03-Dec-17 12:23 39.306477 -109.087281 273 10351ft 167kts
03-Dec-17 12:24 39.315091 -109.145927 274 10391ft 164kts
03-Dec-17 12:25 39.323041 -109.194461 277 10384ft 166kts
03-Dec-17 12:26 39.333828 -109.263053 273 10415ft 167kts
03-Dec-17 12:27 39.340486 -109.312601 273 10423ft 169kts
03-Dec-17 12:28 39.349776 -109.372799 275 10428ft 172kts
03-Dec-17 12:29 39.358907 -109.433575 271 10419ft 173kts
03-Dec-17 12:30 39.366619 -109.495095 273 10443ft 174kts
03-Dec-17 12:31 39.375209 -109.556613 273 10472ft 174kts
03-Dec-17 12:32 39.384571 -109.618077 273 10512ft 174kts
03-Dec-17 12:33 39.394978 -109.679129 275 10595ft 173kts
03-Dec-17 12:34 39.407406 -109.739447 276 10700ft 174kts
03-Dec-17 12:35 39.420026 -109.800026 277 10794ft 174kts
03-Dec-17 12:36 39.431764 -109.861231 275 10868ft 176kts
03-Dec-17 12:37 39.444814 -109.923443 276 10811ft 180kts
03-Dec-17 12:38 39.455903 -109.986760 276 10767ft 181kts
03-Dec-17 12:39 39.469708 -110.049814 278 10732ft 183kts
03-Dec-17 12:40 39.483909 -110.113246 279 10664ft 183kts
03-Dec-17 12:41 39.499408 -110.175895 279 10717ft 181kts
03-Dec-17 12:42 39.513261 -110.238577 277 10733ft 181kts
03-Dec-17 12:43 39.524732 -110.301581 273 10771ft 179kts
03-Dec-17 12:44 39.533272 -110.364993 273 10791ft 179kts
03-Dec-17 12:45 39.543566 -110.428284 275 10815ft 180kts
03-Dec-17 12:46 39.554089 -110.491658 273 10777ft 182kts
03-Dec-17 12:47 39.565314 -110.555565 279 10789ft 183kts
03-Dec-17 12:48 39.580301 -110.618562 277 10776ft 182kts
03-Dec-17 12:49 39.589826 -110.682250 270 10780ft 179kts
03-Dec-17 12:50 39.602600 -110.745530 278 10781ft 182kts
03-Dec-17 12:51 39.634636 -110.799334 307 10710ft 197kts
03-Dec-17 12:52 39.671934 -110.850905 299 10727ft 192kts
03-Dec-17 12:53 39.703017 -110.906854 298 10754ft 191kts
03-Dec-17 12:54 39.736524 -110.960561 298 10782ft 191kts
03-Dec-17 12:55 39.769730 -111.014117 303 10822ft 193kts
03-Dec-17 12:56 39.803819 -111.066361 295 10850ft 187kts
03-Dec-17 12:57 39.833560 -111.120503 290 10890ft 181kts
03-Dec-17 12:58 39.861824 -111.174769 297 10871ft 186kts
03-Dec-17 12:59 39.896730 -111.225163 302 10762ft 192kts
03-Dec-17 13:00 39.932063 -111.275632 294 10648ft 185kts
03-Dec-17 13:01 39.961291 -111.329955 289 10487ft 183kts
03-Dec-17 13:02 39.983278 -111.389578 280 10155ft 181kts
03-Dec-17 13:03 40.004819 -111.448977 285 9770ft 186kts
03-Dec-17 13:04 40.031057 -111.510553 292 9066ft 199kts
03-Dec-17 13:05 40.064429 -111.568712 296 8490ft 199kts
03-Dec-17 13:06 40.098571 -111.625915 301 7957ft 201kts
03-Dec-17 13:07 40.140008 -111.674379 310 7493ft 204kts
03-Dec-17 13:08 40.183324 -111.719206 309 6566ft 192kts
03-Dec-17 13:09 40.227131 -111.755553 357 6131ft 192kts
03-Dec-17 13:10 40.277127 -111.735956 43 5585ft 172kts
03-Dec-17 13:11 40.268200 -111.708225 193 5391ft 96kts
03-Dec-17 13:12 40.244047 -111.715346 195 4939ft 86kts
03-Dec-17 13:13 40.221699 -111.721578 194 4502ft 62kts
03-Dec-17 13:14 40.218143 -111.719567 146 4502ft 13kts
03-Dec-17 13:15 40.217406 -111.717861 51 4502ft 0kts
03-Dec-17 13:16 40.217406 -111.717862 51 4502ft 0kts
03-Dec-17 13:17 40.217406 -111.717862 51 4502ft 0kts

Navigation Log

Ident Type
1. KGJT Airport
2. KPVU Airport